LRI4LW LEST-LESO
Flight info
| Callsign | LRI4LW |
|---|---|
| Flight time | 0h 52m |
| Altitude | 24000 |
| Route | ROXER M190 VES/N0436F330 DCT LASKU/N0436F340 M190 SSN |
| Aircraft | B737/M-SDE2E3FGHIRWXY/LB1 |
Departure
| Time | 2026-05-06 18:38 |
|---|---|
| Airport | Santiago-Rosalía de Castro Airport (LEST) |
Arrival
| Time | 2026-05-06 19:30 |
|---|---|
| Airport | San Sebastián Airport (LESO) |
| Time | Latitude | Longitude | Altitude | Speed | Heading |
|---|---|---|---|---|---|
| 2026-05-06 18:05 | 42.89541 | -8.41840 | 1203 ft | 0 kts | 305° |
| 2026-05-06 18:28 | 42.89529 | -8.41817 | 1202 ft | 2 kts | 305° |
| 2026-05-06 18:29 | 42.89517 | -8.41789 | 1201 ft | 4 kts | 286° |
| 2026-05-06 18:29 | 42.89515 | -8.41754 | 1199 ft | 4 kts | 254° |
| 2026-05-06 18:29 | 42.89527 | -8.41724 | 1197 ft | 4 kts | 216° |
| 2026-05-06 18:29 | 42.89545 | -8.41716 | 1197 ft | 3 kts | 166° |
| 2026-05-06 18:30 | 42.89549 | -8.41717 | 1197 ft | 3 kts | 166° |
| 2026-05-06 18:33 | 42.89522 | -8.41708 | 1196 ft | 8 kts | 166° |
| 2026-05-06 18:33 | 42.89464 | -8.41689 | 1196 ft | 9 kts | 167° |
| 2026-05-06 18:33 | 42.89406 | -8.41670 | 1196 ft | 9 kts | 163° |
| 2026-05-06 18:34 | 42.89334 | -8.41644 | 1196 ft | 12 kts | 167° |
| 2026-05-06 18:34 | 42.89249 | -8.41616 | 1197 ft | 12 kts | 165° |
| 2026-05-06 18:34 | 42.89158 | -8.41585 | 1197 ft | 14 kts | 166° |
| 2026-05-06 18:34 | 42.89062 | -8.41554 | 1197 ft | 14 kts | 166° |
| 2026-05-06 18:35 | 42.88995 | -8.41531 | 1196 ft | 16 kts | 166° |
| 2026-05-06 18:35 | 42.88887 | -8.41495 | 1196 ft | 16 kts | 166° |
| 2026-05-06 18:35 | 42.88777 | -8.41457 | 1194 ft | 17 kts | 166° |
| 2026-05-06 18:35 | 42.88620 | -8.41403 | 1193 ft | 18 kts | 166° |
| 2026-05-06 18:36 | 42.88541 | -8.41376 | 1195 ft | 17 kts | 167° |
| 2026-05-06 18:36 | 42.88427 | -8.41340 | 1196 ft | 16 kts | 167° |
| 2026-05-06 18:36 | 42.88368 | -8.41245 | 1196 ft | 12 kts | 78° |
| 2026-05-06 18:36 | 42.88389 | -8.41137 | 1196 ft | 11 kts | 69° |
| 2026-05-06 18:37 | 42.88426 | -8.41108 | 1196 ft | 6 kts | 354° |
| 2026-05-06 18:37 | 42.88505 | -8.41136 | 1195 ft | 32 kts | 346° |
| 2026-05-06 18:37 | 42.88986 | -8.41297 | 1192 ft | 107 kts | 346° |
| 2026-05-06 18:37 | 42.89907 | -8.41601 | 1262 ft | 158 kts | 348° |
| 2026-05-06 18:38 | 42.90989 | -8.41983 | 1966 ft | 163 kts | 346° |
| 2026-05-06 18:38 | 42.92077 | -8.42372 | 2943 ft | 160 kts | 349° |
| 2026-05-06 18:38 | 42.93182 | -8.42721 | 3772 ft | 166 kts | 348° |
| 2026-05-06 18:38 | 42.94308 | -8.43118 | 4638 ft | 169 kts | 347° |
| 2026-05-06 18:39 | 42.95567 | -8.43562 | 5009 ft | 203 kts | 346° |
| 2026-05-06 18:39 | 42.97047 | -8.44088 | 5383 ft | 232 kts | 346° |
| 2026-05-06 18:39 | 42.98678 | -8.44427 | 5942 ft | 256 kts | 4° |
| 2026-05-06 18:40 | 43.01967 | -8.42190 | 7465 ft | 278 kts | 52° |
| 2026-05-06 18:40 | 43.02877 | -8.39853 | 8443 ft | 280 kts | 70° |
| 2026-05-06 18:40 | 43.03514 | -8.37306 | 9396 ft | 285 kts | 73° |
| 2026-05-06 18:40 | 43.04109 | -8.34692 | 10293 ft | 291 kts | 75° |
| 2026-05-06 18:41 | 43.04721 | -8.31940 | 10665 ft | 316 kts | 74° |
| 2026-05-06 18:41 | 43.05386 | -8.28953 | 11030 ft | 337 kts | 74° |
| 2026-05-06 18:41 | 43.06088 | -8.25839 | 11775 ft | 345 kts | 73° |
| 2026-05-06 18:41 | 43.06795 | -8.22735 | 12669 ft | 348 kts | 73° |
| 2026-05-06 18:42 | 43.07532 | -8.19516 | 13574 ft | 353 kts | 73° |
| 2026-05-06 18:42 | 43.08264 | -8.16328 | 14358 ft | 358 kts | 73° |
| 2026-05-06 18:42 | 43.09018 | -8.13054 | 15205 ft | 363 kts | 73° |
| 2026-05-06 18:42 | 43.09782 | -8.09736 | 16034 ft | 367 kts | 73° |
| 2026-05-06 18:43 | 43.10553 | -8.06382 | 16870 ft | 372 kts | 73° |
| 2026-05-06 18:43 | 43.11336 | -8.02978 | 17686 ft | 377 kts | 73° |
| 2026-05-06 18:43 | 43.12128 | -7.99528 | 18451 ft | 383 kts | 73° |
| 2026-05-06 18:43 | 43.12929 | -7.96033 | 19175 ft | 387 kts | 73° |
| 2026-05-06 18:44 | 43.13740 | -7.92490 | 19895 ft | 391 kts | 73° |
| 2026-05-06 18:44 | 43.14557 | -7.88916 | 20590 ft | 396 kts | 73° |
| 2026-05-06 18:44 | 43.15383 | -7.85295 | 21276 ft | 401 kts | 73° |
| 2026-05-06 18:44 | 43.16218 | -7.81631 | 21945 ft | 406 kts | 73° |
| 2026-05-06 18:45 | 43.17060 | -7.77926 | 22646 ft | 409 kts | 73° |
| 2026-05-06 18:45 | 43.17910 | -7.74183 | 23341 ft | 413 kts | 72° |
| 2026-05-06 18:45 | 43.18766 | -7.70404 | 23912 ft | 418 kts | 72° |
| 2026-05-06 18:45 | 43.19631 | -7.66580 | 24470 ft | 421 kts | 73° |
| 2026-05-06 18:46 | 43.20500 | -7.62732 | 25042 ft | 424 kts | 73° |
| 2026-05-06 18:46 | 43.21375 | -7.58850 | 25589 ft | 428 kts | 73° |
| 2026-05-06 18:46 | 43.22253 | -7.54947 | 26116 ft | 431 kts | 73° |
| 2026-05-06 18:46 | 43.23140 | -7.50996 | 26635 ft | 435 kts | 73° |
| 2026-05-06 18:47 | 43.24034 | -7.47012 | 27129 ft | 438 kts | 73° |
| 2026-05-06 18:47 | 43.24920 | -7.43049 | 27626 ft | 442 kts | 73° |
| 2026-05-06 18:47 | 43.25825 | -7.38995 | 28117 ft | 445 kts | 73° |
| 2026-05-06 18:47 | 43.26733 | -7.34923 | 28579 ft | 448 kts | 73° |
| 2026-05-06 18:48 | 43.27648 | -7.30810 | 29043 ft | 452 kts | 73° |
| 2026-05-06 18:48 | 43.28567 | -7.26670 | 29476 ft | 455 kts | 73° |
| 2026-05-06 18:48 | 43.29494 | -7.22492 | 29892 ft | 459 kts | 73° |
| 2026-05-06 18:48 | 43.30422 | -7.18293 | 30287 ft | 461 kts | 73° |
| 2026-05-06 18:49 | 43.31352 | -7.14081 | 30784 ft | 460 kts | 73° |
| 2026-05-06 18:49 | 43.32278 | -7.09881 | 31365 ft | 457 kts | 73° |
| 2026-05-06 18:49 | 43.33195 | -7.05714 | 31884 ft | 455 kts | 73° |
| 2026-05-06 18:49 | 43.34099 | -7.01592 | 32330 ft | 455 kts | 73° |
| 2026-05-06 18:50 | 43.35012 | -6.97427 | 32781 ft | 454 kts | 73° |
| 2026-05-06 18:50 | 43.35919 | -6.93277 | 33274 ft | 453 kts | 73° |
| 2026-05-06 18:50 | 43.36821 | -6.89144 | 33766 ft | 451 kts | 73° |
| 2026-05-06 18:50 | 43.37720 | -6.85016 | 34013 ft | 452 kts | 73° |
| 2026-05-06 18:51 | 43.38621 | -6.80870 | 34004 ft | 452 kts | 73° |
| 2026-05-06 18:51 | 43.40414 | -6.72599 | 34011 ft | 450 kts | 73° |
| 2026-05-06 18:52 | 43.42197 | -6.64341 | 34023 ft | 450 kts | 73° |
| 2026-05-06 18:52 | 43.43973 | -6.56078 | 34016 ft | 450 kts | 74° |
| 2026-05-06 18:53 | 43.45733 | -6.47861 | 34021 ft | 450 kts | 73° |
| 2026-05-06 18:53 | 43.47497 | -6.39594 | 34018 ft | 450 kts | 74° |
| 2026-05-06 18:54 | 43.49254 | -6.31325 | 34023 ft | 450 kts | 74° |
| 2026-05-06 18:54 | 43.51008 | -6.23037 | 34019 ft | 450 kts | 74° |
| 2026-05-06 18:55 | 43.52755 | -6.14751 | 34022 ft | 451 kts | 74° |
| 2026-05-06 18:55 | 43.54497 | -6.06455 | 34023 ft | 451 kts | 74° |
| 2026-05-06 18:56 | 43.55637 | -5.98040 | 34021 ft | 450 kts | 89° |
| 2026-05-06 18:56 | 43.55339 | -5.89428 | 34018 ft | 450 kts | 95° |
| 2026-05-06 18:57 | 43.54890 | -5.80808 | 34024 ft | 451 kts | 95° |
| 2026-05-06 18:57 | 43.54471 | -5.72171 | 34021 ft | 451 kts | 94° |
| 2026-05-06 18:58 | 43.54079 | -5.63535 | 34017 ft | 452 kts | 94° |
| 2026-05-06 18:58 | 43.53689 | -5.54891 | 34017 ft | 452 kts | 94° |
| 2026-05-06 18:59 | 43.53291 | -5.46222 | 34019 ft | 453 kts | 94° |
| 2026-05-06 18:59 | 43.52887 | -5.37598 | 34014 ft | 453 kts | 94° |
| 2026-05-06 19:00 | 43.52474 | -5.28924 | 34016 ft | 454 kts | 94° |
| 2026-05-06 19:00 | 43.52053 | -5.20244 | 34016 ft | 454 kts | 94° |
| 2026-05-06 19:01 | 43.51627 | -5.11567 | 34016 ft | 454 kts | 94° |
| 2026-05-06 19:01 | 43.51193 | -5.02872 | 34017 ft | 455 kts | 94° |
| 2026-05-06 19:02 | 43.50753 | -4.94176 | 34017 ft | 455 kts | 94° |
| 2026-05-06 19:02 | 43.50309 | -4.85537 | 34015 ft | 455 kts | 94° |
| 2026-05-06 19:03 | 43.49846 | -4.76838 | 34015 ft | 455 kts | 94° |
| 2026-05-06 19:03 | 43.49375 | -4.68139 | 34012 ft | 455 kts | 94° |
| 2026-05-06 19:04 | 43.48900 | -4.59438 | 34019 ft | 455 kts | 94° |
| 2026-05-06 19:04 | 43.48419 | -4.50739 | 34025 ft | 455 kts | 95° |
| 2026-05-06 19:05 | 43.47999 | -4.42024 | 34019 ft | 456 kts | 94° |
| 2026-05-06 19:05 | 43.47601 | -4.33298 | 34020 ft | 456 kts | 94° |
| 2026-05-06 19:06 | 43.47113 | -4.24608 | 34018 ft | 455 kts | 95° |
| 2026-05-06 19:06 | 43.46579 | -4.15975 | 34023 ft | 455 kts | 95° |
| 2026-05-06 19:07 | 43.46048 | -4.07281 | 34018 ft | 456 kts | 95° |
| 2026-05-06 19:07 | 43.45519 | -3.98596 | 34021 ft | 455 kts | 95° |
| 2026-05-06 19:08 | 43.44963 | -3.89907 | 34018 ft | 455 kts | 98° |
| 2026-05-06 19:08 | 43.43782 | -3.81332 | 34016 ft | 455 kts | 102° |
| 2026-05-06 19:09 | 43.42478 | -3.72864 | 34022 ft | 455 kts | 102° |
| 2026-05-06 19:09 | 43.41189 | -3.64337 | 34024 ft | 456 kts | 102° |
| 2026-05-06 19:09 | 43.40551 | -3.60058 | 33721 ft | 459 kts | 102° |
| 2026-05-06 19:10 | 43.39907 | -3.55734 | 33024 ft | 459 kts | 102° |
| 2026-05-06 19:10 | 43.39266 | -3.51432 | 32305 ft | 458 kts | 102° |
| 2026-05-06 19:10 | 43.38630 | -3.47176 | 31820 ft | 451 kts | 102° |
| 2026-05-06 19:10 | 43.38000 | -3.42975 | 31240 ft | 447 kts | 102° |
| 2026-05-06 19:11 | 43.37379 | -3.38846 | 30710 ft | 442 kts | 102° |
| 2026-05-06 19:11 | 43.36759 | -3.34734 | 30186 ft | 438 kts | 102° |
| 2026-05-06 19:11 | 43.36144 | -3.30666 | 29628 ft | 433 kts | 102° |
| 2026-05-06 19:11 | 43.35544 | -3.26662 | 29351 ft | 422 kts | 102° |
| 2026-05-06 19:12 | 43.34965 | -3.22784 | 28809 ft | 417 kts | 102° |
| 2026-05-06 19:12 | 43.34385 | -3.18900 | 28302 ft | 412 kts | 102° |
| 2026-05-06 19:12 | 43.33811 | -3.15065 | 27764 ft | 408 kts | 102° |
| 2026-05-06 19:12 | 43.33240 | -3.11266 | 27221 ft | 405 kts | 102° |
| 2026-05-06 19:13 | 43.32672 | -3.07495 | 26688 ft | 401 kts | 102° |
| 2026-05-06 19:13 | 43.32109 | -3.03762 | 26153 ft | 398 kts | 102° |
| 2026-05-06 19:13 | 43.31547 | -3.00048 | 25626 ft | 395 kts | 102° |
| 2026-05-06 19:13 | 43.30988 | -2.96366 | 25105 ft | 393 kts | 102° |
| 2026-05-06 19:14 | 43.30479 | -2.92692 | 24583 ft | 390 kts | 97° |
| 2026-05-06 19:14 | 43.30341 | -2.88985 | 24078 ft | 388 kts | 90° |
| 2026-05-06 19:14 | 43.30374 | -2.85291 | 23565 ft | 386 kts | 89° |
| 2026-05-06 19:14 | 43.30438 | -2.81616 | 22954 ft | 384 kts | 89° |
| 2026-05-06 19:15 | 43.30503 | -2.77961 | 22390 ft | 381 kts | 89° |
| 2026-05-06 19:15 | 43.30560 | -2.74340 | 21862 ft | 377 kts | 89° |
| 2026-05-06 19:15 | 43.30607 | -2.70758 | 21340 ft | 374 kts | 89° |
| 2026-05-06 19:15 | 43.30647 | -2.67202 | 20814 ft | 371 kts | 89° |
| 2026-05-06 19:16 | 43.30682 | -2.63674 | 20299 ft | 368 kts | 89° |
| 2026-05-06 19:16 | 43.30713 | -2.60172 | 19793 ft | 366 kts | 89° |
| 2026-05-06 19:16 | 43.30742 | -2.56737 | 19289 ft | 363 kts | 89° |
| 2026-05-06 19:16 | 43.30769 | -2.53284 | 18790 ft | 361 kts | 89° |
| 2026-05-06 19:17 | 43.30796 | -2.49837 | 18281 ft | 359 kts | 89° |
| 2026-05-06 19:17 | 43.30820 | -2.46418 | 17704 ft | 357 kts | 89° |
| 2026-05-06 19:17 | 43.30844 | -2.43015 | 17163 ft | 355 kts | 89° |
| 2026-05-06 19:17 | 43.30867 | -2.39638 | 16646 ft | 352 kts | 89° |
| 2026-05-06 19:18 | 43.31074 | -2.36334 | 16004 ft | 345 kts | 77° |
| 2026-05-06 19:18 | 43.31818 | -2.33217 | 15145 ft | 343 kts | 65° |
| 2026-05-06 19:18 | 43.32914 | -2.30316 | 14317 ft | 342 kts | 60° |
| 2026-05-06 19:18 | 43.34057 | -2.27454 | 13532 ft | 339 kts | 60° |
| 2026-05-06 19:19 | 43.35176 | -2.24631 | 12744 ft | 335 kts | 60° |
| 2026-05-06 19:19 | 43.36265 | -2.21872 | 12016 ft | 330 kts | 60° |
| 2026-05-06 19:19 | 43.37341 | -2.19137 | 11591 ft | 317 kts | 60° |
| 2026-05-06 19:19 | 43.38355 | -2.16560 | 11432 ft | 297 kts | 60° |
| 2026-05-06 19:20 | 43.39318 | -2.14112 | 11052 ft | 287 kts | 60° |
| 2026-05-06 19:20 | 43.40263 | -2.11712 | 10532 ft | 284 kts | 59° |
| 2026-05-06 19:20 | 43.41203 | -2.09324 | 9996 ft | 283 kts | 59° |
| 2026-05-06 19:20 | 43.42136 | -2.06953 | 9437 ft | 280 kts | 59° |
| 2026-05-06 19:21 | 43.43057 | -2.04608 | 8913 ft | 277 kts | 59° |
| 2026-05-06 19:21 | 43.43966 | -2.02290 | 8377 ft | 274 kts | 60° |
| 2026-05-06 19:21 | 43.44867 | -1.99994 | 7865 ft | 271 kts | 60° |
| 2026-05-06 19:21 | 43.45763 | -1.97724 | 7354 ft | 268 kts | 59° |
| 2026-05-06 19:22 | 43.46357 | -1.96241 | 7023 ft | 266 kts | 59° |
| 2026-05-06 19:22 | 43.47248 | -1.94020 | 6536 ft | 264 kts | 59° |
| 2026-05-06 19:22 | 43.48133 | -1.91815 | 6018 ft | 261 kts | 59° |
| 2026-05-06 19:22 | 43.49290 | -1.88924 | 5342 ft | 258 kts | 59° |
| 2026-05-06 19:23 | 43.49873 | -1.87467 | 5012 ft | 256 kts | 60° |
| 2026-05-06 19:23 | 43.50719 | -1.85348 | 4725 ft | 246 kts | 60° |
| 2026-05-06 19:23 | 43.51520 | -1.83340 | 4547 ft | 232 kts | 59° |
| 2026-05-06 19:23 | 43.52273 | -1.81451 | 4433 ft | 220 kts | 59° |
| 2026-05-06 19:24 | 43.53008 | -1.79606 | 4353 ft | 220 kts | 59° |
| 2026-05-06 19:24 | 43.53743 | -1.77760 | 4264 ft | 216 kts | 59° |
| 2026-05-06 19:24 | 43.54438 | -1.75983 | 4116 ft | 207 kts | 65° |
| 2026-05-06 19:24 | 43.54601 | -1.74062 | 3889 ft | 202 kts | 102° |
| 2026-05-06 19:25 | 43.53997 | -1.72381 | 3657 ft | 196 kts | 126° |
| 2026-05-06 19:25 | 43.53158 | -1.70922 | 3451 ft | 194 kts | 129° |
| 2026-05-06 19:25 | 43.52302 | -1.69490 | 3229 ft | 193 kts | 129° |
| 2026-05-06 19:25 | 43.51452 | -1.68064 | 3004 ft | 193 kts | 129° |
| 2026-05-06 19:26 | 43.50607 | -1.66639 | 2795 ft | 191 kts | 129° |
| 2026-05-06 19:26 | 43.49636 | -1.65472 | 2546 ft | 184 kts | 159° |
| 2026-05-06 19:26 | 43.48410 | -1.65347 | 2491 ft | 180 kts | 196° |
| 2026-05-06 19:26 | 43.47304 | -1.66243 | 2424 ft | 190 kts | 220° |
| 2026-05-06 19:27 | 43.46253 | -1.67391 | 2304 ft | 193 kts | 220° |
| 2026-05-06 19:27 | 43.45225 | -1.68514 | 2213 ft | 184 kts | 220° |
| 2026-05-06 19:27 | 43.44234 | -1.69602 | 2132 ft | 177 kts | 220° |
| 2026-05-06 19:27 | 43.43292 | -1.70637 | 1933 ft | 168 kts | 220° |
| 2026-05-06 19:28 | 43.42373 | -1.71649 | 1703 ft | 168 kts | 220° |
| 2026-05-06 19:28 | 43.41511 | -1.72598 | 1454 ft | 150 kts | 220° |
| 2026-05-06 19:28 | 43.40743 | -1.73444 | 1252 ft | 137 kts | 220° |
| 2026-05-06 19:28 | 43.39989 | -1.74283 | 1079 ft | 144 kts | 220° |
| 2026-05-06 19:29 | 43.39217 | -1.75136 | 714 ft | 138 kts | 218° |
| 2026-05-06 19:29 | 43.38476 | -1.75921 | 506 ft | 134 kts | 218° |
| 2026-05-06 19:29 | 43.37757 | -1.76729 | 397 ft | 134 kts | 220° |
| 2026-05-06 19:29 | 43.37028 | -1.77551 | 259 ft | 136 kts | 220° |
| 2026-05-06 19:30 | 43.36287 | -1.78352 | 89 ft | 134 kts | 218° |
| 2026-05-06 19:30 | 43.35571 | -1.79134 | 17 ft | 115 kts | 219° |
| 2026-05-06 19:30 | 43.35303 | -1.79438 | 19 ft | 10 kts | 220° |
| 2026-05-06 19:30 | 43.35260 | -1.79511 | 20 ft | 8 kts | 227° |
| 2026-05-06 19:31 | 43.35250 | -1.79512 | 20 ft | 2 kts | 163° |
| 2026-05-06 19:31 | 43.35276 | -1.79461 | 19 ft | 21 kts | 36° |
| 2026-05-06 19:31 | 43.35536 | -1.79275 | 18 ft | 6 kts | 315° |
| 2026-05-06 19:32 | 43.35554 | -1.79300 | 16 ft | 3 kts | 310° |
| 2026-05-06 19:32 | 43.35558 | -1.79313 | 16 ft | 0 kts | 280° |
| 2026-05-06 19:32 | 43.35558 | -1.79315 | 16 ft | 1 kts | 268° |
| 2026-05-06 19:32 | 43.35552 | -1.79323 | 16 ft | 1 kts | 219° |
| 2026-05-06 19:33 | 43.35543 | -1.79333 | 16 ft | 2 kts | 218° |
| 2026-05-06 19:33 | 43.35533 | -1.79343 | 16 ft | 2 kts | 218° |
| 2026-05-06 19:33 | 43.35527 | -1.79349 | 16 ft | 0 kts | 216° |